Time;durP1;ratioP1;P1;durP2;ratioP2;P2;SDS_P1;SDS_P2;PMS_P1;PMS_P2;Temp;Humidity;BMP_temperature;BMP_pressure;BME280_temperature;BME280_humidity;BME280_pressure;Samples;Min_cycle;Max_cycle;Signal;HPM_P1;HPM_P2
2021/03/23 00:00:24;;;;;;;64.50;39.50;;;-0.20;1.00;;;;;;4855895;28;20725;-79
2021/03/23 00:02:49;;;;;;;68.57;39.67;;;-0.10;1.00;;;;;;4879516;28;20691;-78
2021/03/23 00:05:13;;;;;;;65.13;38.13;;;-0.10;1.00;;;;;;4834380;28;21906;-77
2021/03/23 00:07:35;;;;;;;63.77;36.03;;;-0.10;1.00;;;;;;4858443;28;21190;-78
2021/03/23 00:09:57;;;;;;;59.77;36.33;;;-0.10;1.00;;;;;;4873412;28;21500;-78
2021/03/23 00:12:19;;;;;;;65.83;35.87;;;-0.10;1.00;;;;;;4876603;28;20571;-79
2021/03/23 00:14:42;;;;;;;56.03;35.40;;;-0.10;1.00;;;;;;4873967;28;21237;-78
2021/03/23 00:17:05;;;;;;;58.27;34.60;;;-0.10;1.00;;;;;;4853153;28;20626;-78
2021/03/23 00:19:27;;;;;;;54.70;33.47;;;-0.10;1.00;;;;;;4874927;28;20610;-80
2021/03/23 00:21:50;;;;;;;60.63;35.33;;;-0.10;1.00;;;;;;4876384;28;20668;-79
2021/03/23 00:24:12;;;;;;;62.27;36.87;;;0.00;1.00;;;;;;4874648;28;20626;-79
2021/03/23 00:26:34;;;;;;;58.50;36.53;;;0.00;1.00;;;;;;4873353;28;21051;-79
2021/03/23 00:28:57;;;;;;;58.50;36.30;;;0.00;1.00;;;;;;4858051;28;21251;-79
2021/03/23 00:31:20;;;;;;;59.87;33.60;;;0.00;1.00;;;;;;4856605;28;20631;-79
2021/03/23 00:33:43;;;;;;;60.37;35.97;;;0.00;1.00;;;;;;4858069;28;20674;-80
2021/03/23 00:36:06;;;;;;;60.00;36.23;;;0.00;1.00;;;;;;4875432;28;20652;-79
2021/03/23 00:38:30;;;;;;;56.30;32.63;;;0.10;1.00;;;;;;4875684;28;20197;-79
2021/03/23 00:40:53;;;;;;;54.87;32.70;;;0.10;1.00;;;;;;4875740;28;21170;-78
2021/03/23 00:43:15;;;;;;;61.70;35.10;;;0.10;1.00;;;;;;4875637;28;20610;-79
2021/03/23 00:45:39;;;;;;;61.97;33.83;;;0.10;1.00;;;;;;4875885;28;20248;-79
2021/03/23 00:48:01;;;;;;;56.40;33.90;;;0.10;1.00;;;;;;4875058;28;21007;-79
2021/03/23 00:50:23;;;;;;;57.23;33.93;;;0.10;1.00;;;;;;4856858;28;21069;-80
2021/03/23 00:52:46;;;;;;;58.97;32.73;;;0.20;1.00;;;;;;4876273;28;20991;-79
2021/03/23 00:55:11;;;;;;;56.37;32.07;;;0.30;1.00;;;;;;4874547;28;20201;-78
2021/03/23 00:57:33;;;;;;;52.67;30.87;;;0.20;1.00;;;;;;4873387;28;20235;-78
2021/03/23 00:59:55;;;;;;;56.17;33.97;;;0.10;1.00;;;;;;4875567;28;20603;-80
2021/03/23 01:02:17;;;;;;;51.23;30.30;;;0.10;1.00;;;;;;4873218;28;20581;-79
2021/03/23 01:04:39;;;;;;;52.27;30.33;;;0.10;1.00;;;;;;4873959;28;20732;-79
2021/03/23 01:07:01;;;;;;;50.87;29.77;;;0.10;1.00;;;;;;4857190;28;21084;-79
2021/03/23 01:09:23;;;;;;;47.43;29.07;;;0.20;1.00;;;;;;4871858;28;20243;-80
2021/03/23 01:11:46;;;;;;;49.60;30.87;;;0.20;1.00;;;;;;4874248;28;20622;-79
2021/03/23 01:14:08;;;;;;;50.87;30.47;;;0.20;1.00;;;;;;4857508;28;20631;-79
2021/03/23 01:16:30;;;;;;;50.13;30.70;;;0.10;1.00;;;;;;4873971;28;20209;-79
2021/03/23 01:18:52;;;;;;;49.33;29.63;;;0.10;1.00;;;;;;4857162;28;20631;-78
2021/03/23 01:21:15;;;;;;;48.30;29.33;;;0.10;1.00;;;;;;4873530;28;21241;-79
2021/03/23 01:23:37;;;;;;;51.30;30.47;;;0.20;1.00;;;;;;4873488;28;20224;-79
2021/03/23 01:25:59;;;;;;;45.73;28.83;;;0.20;1.00;;;;;;4874788;28;20602;-79
2021/03/23 01:28:22;;;;;;;44.27;27.37;;;0.20;1.00;;;;;;4874015;28;20622;-79
2021/03/23 01:30:45;;;;;;;49.03;28.93;;;0.20;1.00;;;;;;4872654;28;21069;-79
2021/03/23 01:33:07;;;;;;;48.10;28.53;;;0.10;1.00;;;;;;4856896;28;20690;-79
2021/03/23 01:35:29;;;;;;;49.23;30.23;;;0.20;1.00;;;;;;4873866;28;20622;-78
2021/03/23 01:37:52;;;;;;;45.53;26.43;;;0.10;1.00;;;;;;4874058;28;21170;-80
2021/03/23 01:40:16;;;;;;;48.33;28.63;;;0.20;1.00;;;;;;4856327;28;20682;-78
2021/03/23 01:42:41;;;;;;;50.47;29.50;;;0.20;1.00;;;;;;4856864;28;20631;-79
2021/03/23 01:45:30;;;;;;;46.27;28.07;;;0.20;1.00;;;;;;4874101;28;20583;-79
2021/03/23 01:47:54;;;;;;;49.83;30.43;;;0.20;99.90;;;;;;4851629;28;21032;-79
2021/03/23 01:50:18;;;;;;;46.87;28.67;;;0.20;99.90;;;;;;4873318;28;21210;-80
2021/03/23 01:52:41;;;;;;;49.43;28.93;;;0.20;99.90;;;;;;4874639;28;20193;-78
2021/03/23 01:55:08;;;;;;;48.80;28.93;;;0.20;99.90;;;;;;4859173;28;20627;-79
2021/03/23 01:57:33;;;;;;;47.73;28.47;;;0.20;99.90;;;;;;4876940;28;20205;-80
2021/03/23 01:59:58;;;;;;;50.70;27.83;;;0.20;99.90;;;;;;4876181;28;20606;-77
2021/03/23 02:02:24;;;;;;;48.77;27.93;;;0.20;99.90;;;;;;4874590;28;20684;-79
2021/03/23 02:04:46;;;;;;;50.20;28.93;;;0.20;47.50;;;;;;4859561;28;20621;-80
2021/03/23 02:07:08;;;;;;;49.67;30.27;;;0.20;3.10;;;;;;4856328;28;20611;-79
2021/03/23 02:09:34;;;;;;;50.83;30.27;;;0.30;1.00;;;;;;4859747;28;20659;-79
2021/03/23 02:12:00;;;;;;;45.33;26.90;;;0.30;1.00;;;;;;4858351;28;20243;-79
2021/03/23 02:14:25;;;;;;;43.67;27.27;;;0.20;1.00;;;;;;4840873;28;20628;-78
2021/03/23 02:16:48;;;;;;;43.53;26.77;;;0.20;1.00;;;;;;4874685;28;20626;-78
2021/03/23 02:19:13;;;;;;;41.90;25.90;;;0.20;1.00;;;;;;4877134;28;20634;-78
2021/03/23 02:21:35;;;;;;;43.50;25.77;;;0.20;15.20;;;;;;4860353;28;20631;-78
2021/03/23 02:23:58;;;;;;;43.43;26.17;;;0.20;97.40;;;;;;4876268;28;20626;-81
2021/03/23 02:26:22;;;;;;;42.47;25.27;;;0.30;1.00;;;;;;4877984;28;21135;-79
2021/03/23 02:28:52;;;;;;;39.93;24.13;;;0.30;1.00;;;;;;4876433;28;20244;-80
2021/03/23 02:31:14;;;;;;;39.70;22.97;;;0.30;99.90;;;;;;4875488;28;21218;-78
2021/03/23 02:33:36;;;;;;;41.07;23.43;;;0.30;99.90;;;;;;4860137;28;20790;-79
2021/03/23 02:35:59;;;;;;;38.63;23.57;;;0.30;99.90;;;;;;4875367;28;20626;-77
2021/03/23 02:38:22;;;;;;;38.00;21.97;;;0.30;99.90;;;;;;4877986;28;20603;-78
2021/03/23 02:40:44;;;;;;;38.17;22.50;;;0.30;99.90;;;;;;4876380;28;20189;-76
2021/03/23 02:43:07;;;;;;;34.13;21.10;;;0.40;1.00;;;;;;4876587;28;20653;-79
2021/03/23 02:45:30;;;;;;;36.53;21.13;;;0.40;1.00;;;;;;4876072;28;20661;-78
2021/03/23 02:47:52;;;;;;;33.17;20.63;;;0.40;99.90;;;;;;4876073;28;20220;-78
2021/03/23 02:50:15;;;;;;;32.37;20.33;;;0.40;99.90;;;;;;4875500;28;20698;-77
2021/03/23 02:52:37;;;;;;;34.90;21.20;;;0.50;99.90;;;;;;4875935;28;20645;-79
2021/03/23 02:55:00;;;;;;;33.43;19.73;;;0.40;99.90;;;;;;4878391;28;20181;-77
2021/03/23 02:57:22;;;;;;;32.40;19.47;;;0.40;99.90;;;;;;4858681;28;20627;-79
2021/03/23 02:59:44;;;;;;;32.23;20.40;;;0.50;99.90;;;;;;4875745;28;20622;-76
2021/03/23 03:02:07;;;;;;;30.93;20.00;;;0.50;99.90;;;;;;4872922;28;21036;-78
2021/03/23 03:04:29;;;;;;;31.53;20.23;;;0.50;1.00;;;;;;4859566;28;20229;-78
2021/03/23 03:06:51;;;;;;;33.53;20.67;;;0.50;1.00;;;;;;4859337;28;20197;-79
2021/03/23 03:09:14;;;;;;;32.30;18.73;;;0.50;1.00;;;;;;4875855;28;20209;-79
2021/03/23 03:11:37;;;;;;;32.20;19.50;;;0.50;1.00;;;;;;4875541;28;20673;-78
2021/03/23 03:13:59;;;;;;;32.27;19.93;;;0.50;1.00;;;;;;4859390;28;20689;-79
2021/03/23 03:16:21;;;;;;;30.73;19.27;;;0.50;1.00;;;;;;4875696;28;20725;-79
2021/03/23 03:18:43;;;;;;;31.23;19.23;;;0.50;99.90;;;;;;4858502;28;20189;-79
2021/03/23 03:21:06;;;;;;;28.67;18.83;;;0.50;99.90;;;;;;4874705;28;20647;-80
2021/03/23 03:23:28;;;;;;;28.77;18.70;;;0.60;40.70;;;;;;4876180;28;20614;-80
2021/03/23 03:25:51;;;;;;;31.37;19.17;;;0.50;1.00;;;;;;4877284;28;20636;-79
2021/03/23 03:28:14;;;;;;;30.23;19.70;;;0.60;1.00;;;;;;4876316;28;20235;-80
2021/03/23 03:30:38;;;;;;;28.70;18.53;;;0.60;1.00;;;;;;4857560;28;20621;-80
2021/03/23 03:33:02;;;;;;;29.00;19.53;;;0.60;1.00;;;;;;4876707;28;20239;-79
2021/03/23 03:35:26;;;;;;;33.63;19.80;;;0.60;1.00;;;;;;4877511;28;20602;-80
2021/03/23 03:37:48;;;;;;;29.80;19.60;;;0.60;1.00;;;;;;4858676;28;20730;-79
2021/03/23 03:40:13;;;;;;;34.20;19.67;;;0.60;1.00;;;;;;4874176;28;20623;-79
2021/03/23 03:42:36;;;;;;;31.87;19.23;;;0.60;1.00;;;;;;4874903;28;20189;-79
2021/03/23 03:44:59;;;;;;;34.13;20.47;;;0.60;1.00;;;;;;4842446;28;20240;-79
2021/03/23 03:47:21;;;;;;;31.27;19.63;;;0.60;99.90;;;;;;4858662;28;21043;-80
2021/03/23 03:49:43;;;;;;;33.27;20.60;;;0.60;99.90;;;;;;4875959;28;21236;-79
2021/03/23 03:52:06;;;;;;;33.03;20.77;;;0.60;99.90;;;;;;4858028;28;20609;-79
2021/03/23 03:54:29;;;;;;;32.03;19.83;;;0.60;99.90;;;;;;4859132;28;20247;-79
2021/03/23 03:56:51;;;;;;;30.13;19.73;;;0.50;99.90;;;;;;4875239;28;20197;-79
2021/03/23 03:59:13;;;;;;;31.60;19.60;;;0.60;99.90;;;;;;4858251;28;20202;-79
2021/03/23 04:01:36;;;;;;;30.97;19.30;;;0.50;99.90;;;;;;4870960;28;20740;-79
2021/03/23 04:03:58;;;;;;;30.80;20.53;;;0.60;99.90;;;;;;4875043;28;20202;-79
2021/03/23 04:06:21;;;;;;;32.03;20.23;;;0.50;99.90;;;;;;4859038;28;20225;-79
2021/03/23 04:08:43;;;;;;;30.87;19.73;;;0.50;1.00;;;;;;4876598;28;20235;-79
2021/03/23 04:11:07;;;;;;;31.73;19.47;;;0.50;1.00;;;;;;4853809;28;20226;-79
2021/03/23 04:13:49;;;;;;;33.17;21.17;;;0.50;1.00;;;;;;4870164;28;20614;-79
2021/03/23 04:16:31;;;;;;;33.47;21.20;;;0.50;1.00;;;;;;4870921;28;20756;-80
2021/03/23 04:18:54;;;;;;;31.30;20.70;;;0.50;1.00;;;;;;4870733;28;20672;-80
2021/03/23 04:21:16;;;;;;;35.27;21.40;;;0.50;1.00;;;;;;4873892;28;20189;-78
2021/03/23 04:23:41;;;;;;;31.60;20.23;;;0.60;99.90;;;;;;4874031;28;20189;-79
2021/03/23 04:26:05;;;;;;;32.70;19.93;;;0.50;99.90;;;;;;4841975;28;20636;-80
2021/03/23 04:28:27;;;;;;;31.17;20.03;;;0.50;99.90;;;;;;4874162;28;20626;-80
2021/03/23 04:30:50;;;;;;;30.00;19.30;;;0.50;99.90;;;;;;4875925;28;20694;-78
2021/03/23 04:33:13;;;;;;;27.63;18.73;;;0.60;99.90;;;;;;4874550;28;20201;-79
2021/03/23 04:35:43;;;;;;;32.30;20.27;;;0.60;99.90;;;;;;4856971;28;20198;-80
2021/03/23 04:38:05;;;;;;;31.57;20.77;;;0.60;99.90;;;;;;4874289;28;20205;-79
2021/03/23 04:40:27;;;;;;;27.43;19.17;;;0.60;99.90;;;;;;4874512;28;20197;-80
2021/03/23 04:42:49;;;;;;;31.40;19.67;;;0.60;99.90;;;;;;4876306;28;20649;-79
2021/03/23 04:45:12;;;;;;;28.70;19.47;;;0.60;99.90;;;;;;4872962;28;20672;-79
2021/03/23 04:47:34;;;;;;;32.53;18.23;;;0.70;1.00;;;;;;4866362;28;20251;-79
2021/03/23 04:49:57;;;;;;;31.10;20.03;;;0.70;1.00;;;;;;4840938;28;20193;-80
2021/03/23 04:52:20;;;;;;;30.67;19.53;;;0.70;1.00;;;;;;4876117;28;20209;-79
2021/03/23 04:54:42;;;;;;;31.13;20.63;;;0.70;1.00;;;;;;4875016;28;20197;-79
2021/03/23 04:57:04;;;;;;;32.43;20.90;;;0.70;1.00;;;;;;4875082;28;20243;-79
2021/03/23 04:59:27;;;;;;;33.83;21.10;;;0.70;1.00;;;;;;4857625;28;21234;-80
2021/03/23 05:01:49;;;;;;;31.30;20.17;;;0.70;1.00;;;;;;4871252;28;20221;-79
2021/03/23 05:04:15;;;;;;;29.17;19.37;;;0.80;99.90;;;;;;4876389;28;20651;-79
2021/03/23 05:06:37;;;;;;;25.40;17.37;;;0.80;99.90;;;;;;4873647;28;20189;-79
2021/03/23 05:09:00;;;;;;;32.07;18.67;;;0.80;1.00;;;;;;4857463;28;20214;-80
2021/03/23 05:11:25;;;;;;;28.77;18.33;;;0.80;1.00;;;;;;4873597;28;20232;-80
2021/03/23 05:13:47;;;;;;;27.47;18.33;;;0.90;1.00;;;;;;4873934;28;20182;-79
2021/03/23 05:16:10;;;;;;;29.83;18.70;;;0.90;1.00;;;;;;4858062;28;20189;-79
2021/03/23 05:18:32;;;;;;;27.97;17.80;;;0.90;1.00;;;;;;4872405;28;20314;-80
2021/03/23 05:20:54;;;;;;;29.87;19.20;;;0.90;1.00;;;;;;4874881;28;20614;-79
2021/03/23 05:23:17;;;;;;;24.87;17.07;;;0.90;1.00;;;;;;4875312;28;20185;-80
2021/03/23 05:25:41;;;;;;;27.13;17.33;;;1.00;99.90;;;;;;4874070;28;20573;-80
2021/03/23 05:28:03;;;;;;;26.83;16.83;;;1.00;99.90;;;;;;4875809;28;20215;-78
2021/03/23 05:30:25;;;;;;;25.13;16.87;;;1.00;99.90;;;;;;4858218;28;20194;-78
2021/03/23 05:32:47;;;;;;;24.77;16.70;;;1.10;99.90;;;;;;4879723;28;20189;-78
2021/03/23 05:35:12;;;;;;;24.27;16.03;;;1.20;89.50;;;;;;4879885;28;20663;-79
2021/03/23 05:37:34;;;;;;;25.13;16.63;;;1.20;1.00;;;;;;4877490;28;20566;-78
2021/03/23 05:39:56;;;;;;;26.03;15.80;;;1.30;1.00;;;;;;4876639;28;20635;-78
2021/03/23 05:42:27;;;;;;;25.70;16.33;;;1.40;1.00;;;;;;4861149;28;20610;-78
2021/03/23 05:45:05;;;;;;;22.77;15.13;;;1.50;1.00;;;;;;4860783;28;20737;-79
2021/03/23 05:47:32;;;;;;;22.47;15.17;;;1.60;1.00;;;;;;4879429;28;20185;-79
2021/03/23 05:50:01;;;;;;;21.10;14.53;;;1.60;1.00;;;;;;4876612;28;20197;-80
2021/03/23 05:52:27;;;;;;;23.13;14.57;;;1.70;1.00;;;;;;4878823;28;20213;-78
2021/03/23 05:55:00;;;;;;;22.23;14.70;;;1.80;99.90;;;;;;4877624;28;20197;-79
2021/03/23 05:57:28;;;;;;;20.80;13.43;;;1.80;99.90;;;;;;4879137;28;20576;-79
2021/03/23 05:59:54;;;;;;;20.30;13.83;;;1.90;99.90;;;;;;4876864;28;20275;-79
2021/03/23 06:02:24;;;;;;;22.03;14.87;;;2.00;12.40;;;;;;4875424;28;20237;-79
2021/03/23 06:04:55;;;;;;;21.27;14.53;;;2.10;1.00;;;;;;4879110;28;20235;-80
2021/03/23 06:07:18;;;;;;;20.13;13.23;;;2.20;1.00;;;;;;4878034;28;20174;-79
2021/03/23 06:09:42;;;;;;;21.50;13.57;;;2.30;1.00;;;;;;4876415;28;20621;-79
2021/03/23 06:12:15;;;;;;;20.27;13.33;;;2.40;1.00;;;;;;4876374;28;20740;-79
2021/03/23 06:14:54;;;;;;;19.73;13.27;;;2.50;1.00;;;;;;4858132;28;20202;-79
2021/03/23 06:17:39;;;;;;;18.30;12.47;;;2.60;99.90;;;;;;4872328;28;20189;-79
2021/03/23 06:20:15;;;;;;;17.47;12.30;;;2.70;99.90;;;;;;4876461;28;20223;-79
2021/03/23 06:22:48;;;;;;;18.33;11.97;;;2.80;99.90;;;;;;4858344;28;20210;-80
2021/03/23 06:25:24;;;;;;;17.70;13.17;;;2.90;99.90;;;;;;4860709;28;20198;-79
2021/03/23 06:27:52;;;;;;;19.77;11.63;;;2.90;99.90;;;;;;4859973;28;20206;-79
2021/03/23 06:30:35;;;;;;;17.23;11.60;;;3.00;99.90;;;;;;4859224;28;20201;-80
2021/03/23 06:32:57;;;;;;;16.33;10.90;;;3.00;99.90;;;;;;4863992;28;20262;-79
2021/03/23 06:35:22;;;;;;;16.60;10.60;;;3.00;48.80;;;;;;4876658;28;20185;-78
2021/03/23 06:37:44;;;;;;;15.53;11.07;;;3.20;23.00;;;;;;4878186;28;20193;-80
2021/03/23 06:40:11;;;;;;;14.63;10.40;;;3.20;36.30;;;;;;4858759;28;20247;-80
2021/03/23 06:42:41;;;;;;;16.57;10.63;;;3.30;50.40;;;;;;4878028;28;20244;-80
2021/03/23 06:45:21;;;;;;;12.97;9.33;;;3.40;36.40;;;;;;4876952;28;20185;-79
2021/03/23 06:47:44;;;;;;;16.13;10.27;;;3.50;1.00;;;;;;4857922;28;20244;-79
2021/03/23 06:50:24;;;;;;;15.73;9.77;;;3.60;1.00;;;;;;4875706;28;20198;-79
2021/03/23 06:53:06;;;;;;;15.43;10.37;;;3.70;1.00;;;;;;4876543;28;20259;-79
2021/03/23 06:55:29;;;;;;;16.13;10.83;;;3.90;1.00;;;;;;4858143;28;20246;-80
2021/03/23 06:57:51;;;;;;;14.23;9.83;;;3.90;1.00;;;;;;4859371;28;20241;-78
2021/03/23 07:00:24;;;;;;;15.40;10.67;;;4.00;1.00;;;;;;4876179;28;20205;-80
2021/03/23 07:02:48;;;;;;;14.93;9.90;;;4.20;1.00;;;;;;4874442;28;20229;-79
2021/03/23 07:05:32;;;;;;;16.40;10.33;;;4.20;1.00;;;;;;4876676;28;20572;-79
2021/03/23 07:07:56;;;;;;;14.33;10.50;;;4.30;1.00;;;;;;4856426;28;20210;-79
2021/03/23 07:10:22;;;;;;;14.33;9.57;;;4.30;1.00;;;;;;4856749;28;20218;-79
2021/03/23 07:12:46;;;;;;;14.03;10.07;;;4.30;1.00;;;;;;4858560;28;20218;-78
2021/03/23 07:15:14;;;;;;;12.60;8.83;;;4.40;1.00;;;;;;4859042;28;20186;-77
2021/03/23 07:17:42;;;;;;;14.60;9.93;;;4.50;1.00;;;;;;4874795;28;20224;-77
2021/03/23 07:20:10;;;;;;;14.53;10.33;;;4.60;1.00;;;;;;4877257;28;20178;-79
2021/03/23 07:22:48;;;;;;;13.17;9.90;;;4.70;1.00;;;;;;4871695;28;20678;-78
2021/03/23 07:25:31;;;;;;;18.37;12.30;;;4.90;1.00;;;;;;4860049;28;20243;-80
2021/03/23 07:28:20;;;;;;;17.73;11.37;;;5.20;1.00;;;;;;4855715;28;20206;-76
2021/03/23 07:30:48;;;;;;;17.20;11.60;;;5.40;1.00;;;;;;4859496;28;20310;-79
2021/03/23 07:33:20;;;;;;;14.63;8.83;;;5.70;1.00;;;;;;4872006;28;20236;-78
2021/03/23 07:35:45;;;;;;;10.90;7.67;;;5.90;1.00;;;;;;4846175;28;20538;-79
2021/03/23 07:38:21;;;;;;;9.87;6.57;;;6.20;1.00;;;;;;4839098;28;20210;-80
2021/03/23 07:40:46;;;;;;;9.00;6.37;;;6.30;1.00;;;;;;4864060;28;20198;-79
2021/03/23 07:43:31;;;;;;;10.00;6.50;;;6.40;1.00;;;;;;4857050;28;20292;-78
2021/03/23 07:46:01;;;;;;;7.07;5.50;;;6.50;1.00;;;;;;4858355;28;20232;-80
2021/03/23 07:48:35;;;;;;;6.70;4.87;;;6.60;1.00;;;;;;4849989;28;20286;-81
2021/03/23 07:51:10;;;;;;;7.67;5.20;;;6.70;1.00;;;;;;4870279;28;20201;-77
2021/03/23 07:53:37;;;;;;;7.20;4.80;;;6.60;1.00;;;;;;4865328;28;20673;-76
2021/03/23 07:56:13;;;;;;;5.77;5.17;;;6.70;1.00;;;;;;4856864;28;20191;-78
2021/03/23 07:58:45;;;;;;;7.07;5.30;;;6.60;1.00;;;;;;4842320;28;20293;-79
2021/03/23 08:01:17;;;;;;;8.43;6.27;;;6.60;1.00;;;;;;4836535;28;20238;-79
2021/03/23 08:04:12;;;;;;;8.77;5.63;;;6.60;1.00;;;;;;4839917;28;20237;-78
2021/03/23 08:06:54;;;;;;;9.83;6.63;;;6.50;1.00;;;;;;4819259;28;20207;-79
2021/03/23 08:09:37;;;;;;;8.07;5.90;;;6.50;1.00;;;;;;4860385;28;20631;-81
2021/03/23 08:12:15;;;;;;;8.20;5.60;;;6.50;1.00;;;;;;4858626;28;20229;-78
2021/03/23 08:14:54;;;;;;;7.53;6.10;;;6.50;1.00;;;;;;4875648;28;20181;-75
2021/03/23 08:17:36;;;;;;;9.10;5.90;;;6.50;1.00;;;;;;4873264;28;20181;-78
2021/03/23 08:20:20;;;;;;;7.10;5.10;;;6.60;1.00;;;;;;4857543;28;20189;-78
2021/03/23 08:23:06;;;;;;;10.63;6.30;;;6.70;1.00;;;;;;4857089;28;20251;-78
2021/03/23 08:25:42;;;;;;;7.00;4.67;;;6.80;1.00;;;;;;4856868;28;20252;-79
2021/03/23 08:28:23;;;;;;;7.70;4.97;;;6.80;1.00;;;;;;4857725;28;20206;-76
2021/03/23 08:30:54;;;;;;;8.97;6.37;;;6.80;1.00;;;;;;4873263;28;20189;-76
2021/03/23 08:33:32;;;;;;;6.60;5.47;;;6.80;1.00;;;;;;4874981;28;20178;-78
2021/03/23 08:36:10;;;;;;;9.60;6.97;;;6.80;1.00;;;;;;4874679;28;20196;-76
2021/03/23 08:38:51;;;;;;;7.97;5.67;;;6.80;1.00;;;;;;4856483;28;20229;-78
2021/03/23 08:41:20;;;;;;;5.77;4.73;;;6.70;1.00;;;;;;4857449;28;20205;-78
2021/03/23 08:43:44;;;;;;;9.40;5.60;;;6.80;1.00;;;;;;4874438;28;20246;-77
2021/03/23 08:46:12;;;;;;;7.00;5.43;;;6.70;1.00;;;;;;4855457;28;20240;-78
2021/03/23 08:48:41;;;;;;;7.70;5.27;;;6.80;1.00;;;;;;4874362;28;20319;-77
2021/03/23 08:51:08;;;;;;;7.43;5.23;;;6.90;1.00;;;;;;4867692;28;20205;-77
2021/03/23 08:53:42;;;;;;;8.10;4.87;;;7.20;1.00;;;;;;4857123;28;20190;-77
2021/03/23 08:56:06;;;;;;;7.20;5.20;;;7.50;1.00;;;;;;4873257;28;20192;-77
2021/03/23 08:58:47;;;;;;;6.67;4.83;;;7.70;1.00;;;;;;4868885;28;20186;-79
2021/03/23 09:01:38;;;;;;;4.90;3.77;;;7.90;1.00;;;;;;4843816;28;20191;-77
2021/03/23 09:04:30;;;;;;;5.87;4.27;;;8.20;1.00;;;;;;4874954;28;20197;-80
2021/03/23 09:06:55;;;;;;;6.60;4.87;;;8.30;1.00;;;;;;4879024;28;20181;-76
2021/03/23 09:09:29;;;;;;;14.27;12.20;;;8.40;1.00;;;;;;4884331;28;20200;-77
2021/03/23 09:12:06;;;;;;;9.40;6.23;;;8.40;1.00;;;;;;4858812;28;20229;-77
2021/03/23 09:14:30;;;;;;;4.47;3.83;;;8.40;1.00;;;;;;4873743;28;20189;-76
2021/03/23 09:17:25;;;;;;;8.43;7.60;;;8.40;1.00;;;;;;4858804;28;20198;-81
2021/03/23 09:19:52;;;;;;;5.57;4.07;;;8.30;1.00;;;;;;4859933;28;20198;-77
2021/03/23 09:22:32;;;;;;;5.53;4.87;;;8.20;1.00;;;;;;4878756;28;20216;-77
2021/03/23 09:25:37;;;;;;;6.53;4.03;;;8.20;1.00;;;;;;4876943;28;20240;-76
2021/03/23 09:28:03;;;;;;;6.70;4.57;;;8.20;1.00;;;;;;4857335;28;20197;-77
2021/03/23 09:30:52;;;;;;;8.30;7.40;;;8.20;1.00;;;;;;4863129;28;20661;-76
2021/03/23 09:33:34;;;;;;;10.17;8.47;;;8.10;1.00;;;;;;4876565;28;20635;-78
2021/03/23 09:36:27;;;;;;;10.77;9.23;;;8.20;1.00;;;;;;4871478;28;20205;-77
2021/03/23 09:38:53;;;;;;;6.23;4.17;;;8.20;1.00;;;;;;4876305;28;20228;-76
2021/03/23 09:41:35;;;;;;;4.37;3.63;;;8.40;1.00;;;;;;4859667;28;20304;-79
2021/03/23 09:44:30;;;;;;;5.17;4.20;;;8.70;1.00;;;;;;4873917;28;20752;-78
2021/03/23 09:46:54;;;;;;;4.60;4.20;;;8.90;1.00;;;;;;4877561;28;20734;-79
2021/03/23 09:49:19;;;;;;;4.37;3.97;;;9.10;1.00;;;;;;4876746;28;20194;-79
2021/03/23 09:51:46;;;;;;;4.83;4.20;;;9.30;1.00;;;;;;4877384;28;20279;-77
2021/03/23 09:54:29;;;;;;;5.57;4.20;;;9.40;1.00;;;;;;4875114;28;20231;-78
2021/03/23 09:56:53;;;;;;;5.63;4.20;;;9.40;1.00;;;;;;4877626;28;20189;-78
2021/03/23 09:59:19;;;;;;;4.50;4.10;;;9.40;1.00;;;;;;4874850;28;20255;-78
2021/03/23 10:01:52;;;;;;;5.40;3.80;;;9.40;1.00;;;;;;4854718;28;20227;-76
2021/03/23 10:04:25;;;;;;;3.60;3.30;;;9.40;1.00;;;;;;4870646;28;20235;-76
2021/03/23 10:06:49;;;;;;;4.77;4.27;;;9.40;1.00;;;;;;4877209;28;20232;-76
2021/03/23 10:09:12;;;;;;;4.70;3.90;;;9.50;1.00;;;;;;4840875;28;20219;-76
2021/03/23 10:11:38;;;;;;;3.63;3.33;;;9.70;1.00;;;;;;4863896;28;20233;-76
2021/03/23 10:14:09;;;;;;;4.47;3.60;;;9.90;1.00;;;;;;4875945;28;20197;-77
2021/03/23 10:16:32;;;;;;;3.10;2.87;;;10.10;1.00;;;;;;4877222;28;20682;-75
2021/03/23 10:18:58;;;;;;;3.10;2.83;;;10.30;1.00;;;;;;4877835;28;20251;-76
2021/03/23 10:21:26;;;;;;;2.90;2.57;;;10.50;1.00;;;;;;4858434;28;20275;-75
2021/03/23 10:23:51;;;;;;;3.27;2.97;;;10.70;1.00;;;;;;4875898;28;20193;-76
2021/03/23 10:26:13;;;;;;;2.97;2.70;;;11.00;1.00;;;;;;4859816;28;20205;-76
2021/03/23 10:28:38;;;;;;;2.83;2.60;;;11.10;1.00;;;;;;4859531;28;20221;-76
2021/03/23 10:31:03;;;;;;;3.17;2.50;;;11.10;1.00;;;;;;4843157;28;20716;-76
2021/03/23 10:33:29;;;;;;;2.53;2.33;;;10.90;1.00;;;;;;4876882;28;20691;-77
2021/03/23 10:35:56;;;;;;;2.77;2.53;;;10.70;1.00;;;;;;4874945;28;20333;-75
2021/03/23 10:38:21;;;;;;;3.17;2.83;;;10.50;1.00;;;;;;4877888;28;20263;-76
2021/03/23 10:40:45;;;;;;;3.03;2.57;;;10.50;1.00;;;;;;4876164;28;20204;-76
2021/03/23 10:43:11;;;;;;;2.63;2.40;;;10.60;1.00;;;;;;4875699;28;20193;-76
2021/03/23 10:45:49;;;;;;;2.77;2.57;;;10.70;1.00;;;;;;4875292;28;20233;-76
2021/03/23 10:48:18;;;;;;;3.07;2.77;;;10.80;1.00;;;;;;4875329;28;20189;-76
2021/03/23 10:50:43;;;;;;;2.80;2.53;;;10.80;1.00;;;;;;4858467;28;20194;-76
2021/03/23 10:53:20;;;;;;;2.70;2.50;;;10.70;1.00;;;;;;4875695;28;20217;-75
2021/03/23 10:55:44;;;;;;;3.13;2.93;;;10.60;1.00;;;;;;4858457;28;20202;-76
2021/03/23 10:58:14;;;;;;;3.33;3.03;;;10.50;1.00;;;;;;4876479;28;20255;-76
2021/03/23 11:00:36;;;;;;;2.80;2.60;;;10.40;1.00;;;;;;4872655;28;20228;-76
2021/03/23 11:03:13;;;;;;;3.37;3.07;;;10.30;1.00;;;;;;4856557;28;20271;-76
2021/03/23 11:05:43;;;;;;;3.60;3.27;;;10.10;1.00;;;;;;4841003;28;20190;-75
2021/03/23 11:08:05;;;;;;;5.87;3.87;;;9.80;1.00;;;;;;4876335;28;20217;-77
2021/03/23 11:10:30;;;;;;;5.43;3.80;;;9.70;1.00;;;;;;4857904;28;20221;-78
2021/03/23 11:12:52;;;;;;;4.47;3.80;;;9.50;1.00;;;;;;4876466;28;20240;-76
2021/03/23 11:15:15;;;;;;;4.37;3.90;;;9.50;1.00;;;;;;4871282;28;20198;-77
2021/03/23 11:17:46;;;;;;;3.70;3.40;;;9.50;1.00;;;;;;4862310;28;20302;-80
2021/03/23 11:20:21;;;;;;;4.13;3.53;;;9.60;1.00;;;;;;4859726;28;20243;-78
2021/03/23 11:22:43;;;;;;;4.50;3.63;;;9.60;1.00;;;;;;4875581;28;20251;-79
2021/03/23 11:25:07;;;;;;;3.30;3.00;;;9.50;1.00;;;;;;4875048;28;20205;-76
2021/03/23 11:27:29;;;;;;;4.90;3.80;;;9.50;1.00;;;;;;4875420;28;20188;-76
2021/03/23 11:29:52;;;;;;;3.43;3.13;;;9.50;1.00;;;;;;4858155;28;20190;-78
2021/03/23 11:32:14;;;;;;;4.13;3.77;;;9.60;1.00;;;;;;4875857;28;20270;-76
2021/03/23 11:34:36;;;;;;;6.50;4.37;;;9.70;1.00;;;;;;4876414;28;20193;-77
2021/03/23 11:36:59;;;;;;;3.20;2.90;;;10.10;1.00;;;;;;4872906;28;20185;-76
2021/03/23 11:39:21;;;;;;;3.50;3.17;;;10.60;1.00;;;;;;4850660;28;20711;-75
2021/03/23 11:41:50;;;;;;;2.83;2.63;;;11.20;1.00;;;;;;4866612;28;20670;-77
2021/03/23 11:44:21;;;;;;;2.90;2.70;;;11.70;1.00;;;;;;4825994;28;20199;-76
2021/03/23 11:46:50;;;;;;;2.57;2.37;;;12.10;99.90;;;;;;4857972;28;20198;-76
2021/03/23 11:49:20;;;;;;;3.57;2.67;;;12.30;99.90;;;;;;4874992;28;20193;-75
2021/03/23 11:51:46;;;;;;;3.03;2.40;;;13.50;1.00;;;;;;4876370;28;20212;-78
2021/03/23 11:54:11;;;;;;;1.80;1.70;;;14.80;99.90;;;;;;4875256;28;20608;-75
2021/03/23 11:56:34;;;;;;;1.47;1.37;;;15.60;99.90;;;;;;4848968;28;20289;-75
2021/03/23 11:58:57;;;;;;;1.23;1.23;;;16.00;99.90;;;;;;4859094;28;20201;-75
2021/03/23 12:01:21;;;;;;;1.03;1.03;;;16.60;99.90;;;;;;4855306;28;20225;-76
2021/03/23 12:03:44;;;;;;;0.60;0.60;;;18.20;99.90;;;;;;4857898;28;20217;-74
2021/03/23 12:06:08;;;;;;;0.40;0.40;;;21.00;99.90;;;;;;4873458;28;20212;-77
2021/03/23 12:08:33;;;;;;;0.20;0.20;;;22.70;99.90;;;;;;4841520;28;20211;-76
2021/03/23 12:11:07;;;;;;;0.20;0.20;;;24.90;99.90;;;;;;4873139;28;20633;-73
2021/03/23 12:13:42;;;;;;;0.20;0.20;;;26.00;99.90;;;;;;4874478;28;20279;-73
2021/03/23 12:16:13;;;;;;;0.20;0.20;;;25.80;99.90;;;;;;4882688;28;20680;-79
2021/03/23 12:18:35;;;;;;;0.10;0.10;;;24.50;99.90;;;;;;4845973;28;20203;-76
2021/03/23 12:21:00;;;;;;;0.20;0.20;;;23.00;99.90;;;;;;4868290;28;20202;-73
2021/03/23 12:23:23;;;;;;;0.20;0.20;;;21.40;99.90;;;;;;4860694;28;20189;-75
2021/03/23 12:25:46;;;;;;;0.20;0.20;;;19.70;99.90;;;;;;4870877;28;20195;-76
2021/03/23 12:28:09;;;;;;;0.27;0.27;;;18.10;99.90;;;;;;4874985;28;20235;-76
2021/03/23 12:30:31;;;;;;;0.47;0.47;;;16.70;99.90;;;;;;4866262;28;20185;-76
2021/03/23 12:32:54;;;;;;;0.40;0.40;;;15.40;99.90;;;;;;4874751;28;20209;-76
2021/03/23 12:35:19;;;;;;;0.50;0.50;;;14.30;99.90;;;;;;4856994;28;20576;-77
2021/03/23 12:37:43;;;;;;;0.60;0.60;;;13.40;99.90;;;;;;4874916;28;20556;-75
2021/03/23 12:40:08;;;;;;;1.30;1.27;;;12.70;99.90;;;;;;4854904;28;20257;-75
2021/03/23 12:42:30;;;;;;;2.60;2.40;;;12.20;99.90;;;;;;4869219;28;20201;-76
2021/03/23 12:44:53;;;;;;;2.00;1.90;;;11.70;99.90;;;;;;4865420;28;20557;-76
2021/03/23 12:47:15;;;;;;;3.40;3.10;;;11.40;99.90;;;;;;4859349;28;20193;-75
2021/03/23 12:49:37;;;;;;;4.20;3.13;;;11.20;99.90;;;;;;4861917;28;20197;-78